Time;durP1;ratioP1;P1;durP2;ratioP2;P2;SDS_P1;SDS_P2;PMS_P1;PMS_P2;Temp;Humidity;BMP_temperature;BMP_pressure;BME280_temperature;BME280_humidity;BME280_pressure;Samples;Min_cycle;Max_cycle;Signal;HPM_P1;HPM_P2
2022/10/23 00:01:00;;;;;;;8.17;3.03;;;11.50;99.90;;;;;;4989101;28;20252;-82
2022/10/23 00:03:26;;;;;;;21.87;6.20;;;11.50;99.90;;;;;;4974680;28;20291;-83
2022/10/23 00:05:52;;;;;;;6.37;3.30;;;11.40;99.90;;;;;;4967211;28;20637;-82
2022/10/23 00:08:17;;;;;;;9.90;3.40;;;11.40;99.90;;;;;;4968981;28;20240;-83
2022/10/23 00:10:43;;;;;;;9.53;2.93;;;11.40;99.90;;;;;;5003974;28;20214;-82
2022/10/23 00:13:09;;;;;;;6.57;4.13;;;11.30;99.90;;;;;;4947555;28;20678;-80
2022/10/23 00:15:36;;;;;;;21.37;3.57;;;11.20;99.90;;;;;;4962055;28;20219;-84
2022/10/23 00:18:02;;;;;;;8.57;3.00;;;11.10;99.90;;;;;;4989672;28;20246;-82
2022/10/23 00:20:28;;;;;;;11.57;3.57;;;11.10;99.90;;;;;;4992059;28;20191;-81
2022/10/23 00:22:54;;;;;;;12.90;5.23;;;11.10;99.90;;;;;;4970495;28;21062;-81
2022/10/23 00:25:20;;;;;;;19.10;5.13;;;11.30;99.90;;;;;;4987562;28;20242;-82
2022/10/23 00:27:46;;;;;;;11.73;3.97;;;11.40;99.90;;;;;;4991849;28;20620;-81
2022/10/23 00:30:12;;;;;;;7.50;4.50;;;11.50;99.90;;;;;;4996586;28;20802;-83
2022/10/23 00:32:38;;;;;;;7.27;4.07;;;11.50;99.90;;;;;;4996539;28;20249;-82
2022/10/23 00:35:04;;;;;;;11.27;3.80;;;11.50;99.90;;;;;;4996236;28;20196;-80
2022/10/23 00:37:30;;;;;;;5.13;4.23;;;11.50;99.90;;;;;;4996293;28;20216;-81
2022/10/23 00:39:56;;;;;;;7.33;3.77;;;11.40;99.90;;;;;;4987943;28;20218;-81
2022/10/23 00:42:22;;;;;;;10.67;4.83;;;11.30;99.90;;;;;;4986636;28;20223;-82
2022/10/23 00:44:48;;;;;;;10.67;4.27;;;11.20;99.90;;;;;;4948246;28;20236;-81
2022/10/23 00:47:13;;;;;;;5.47;4.47;;;11.10;99.90;;;;;;4968726;28;20662;-81
2022/10/23 00:49:40;;;;;;;5.20;3.83;;;11.10;99.90;;;;;;4977650;28;20192;-83
2022/10/23 00:52:08;;;;;;;6.70;3.70;;;11.00;99.90;;;;;;4971677;28;20220;-81
2022/10/23 00:54:38;;;;;;;6.37;4.03;;;11.10;99.90;;;;;;4981457;28;20668;-81
2022/10/23 00:57:06;;;;;;;4.53;3.67;;;11.00;99.90;;;;;;4968103;28;20221;-81
2022/10/23 00:59:32;;;;;;;8.50;5.23;;;11.00;99.90;;;;;;4969982;28;21099;-82
2022/10/23 01:01:58;;;;;;;5.10;4.10;;;11.10;99.90;;;;;;4995515;28;20229;-81
2022/10/23 01:04:25;;;;;;;9.87;3.87;;;11.10;99.90;;;;;;4994209;28;20579;-81
2022/10/23 01:07:16;;;;;;;14.53;5.60;;;11.10;99.90;;;;;;4985706;28;20224;-81
2022/10/23 01:09:57;;;;;;;7.93;3.83;;;11.10;99.90;;;;;;4984536;28;20286;-80
2022/10/23 01:12:50;;;;;;;4.33;3.83;;;11.10;99.90;;;;;;4990896;28;20364;-81
2022/10/23 01:15:24;;;;;;;8.03;3.87;;;11.10;99.90;;;;;;4974789;28;20713;-80
2022/10/23 01:17:50;;;;;;;8.07;4.83;;;11.10;99.90;;;;;;4985566;28;20220;-80
2022/10/23 01:20:27;;;;;;;9.40;3.67;;;11.10;99.90;;;;;;4986358;28;20203;-81
2022/10/23 01:23:27;;;;;;;5.20;3.57;;;11.10;99.90;;;;;;4997635;28;20644;-81
2022/10/23 01:26:02;;;;;;;10.93;5.07;;;11.10;99.90;;;;;;4994472;28;20224;-80
2022/10/23 01:28:29;;;;;;;9.83;5.83;;;11.20;99.90;;;;;;4985712;28;20306;-82
2022/10/23 01:30:58;;;;;;;11.33;4.97;;;11.20;99.90;;;;;;4985521;28;20570;-80
2022/10/23 01:33:33;;;;;;;6.53;5.17;;;11.20;99.90;;;;;;4987753;28;20355;-80
2022/10/23 01:36:13;;;;;;;6.67;4.30;;;11.30;99.90;;;;;;4997977;28;20308;-83
2022/10/23 01:38:56;;;;;;;8.87;5.30;;;11.30;99.90;;;;;;5007913;28;20246;-80
2022/10/23 01:41:32;;;;;;;11.00;5.17;;;11.30;99.90;;;;;;4983311;28;20190;-80
2022/10/23 01:44:02;;;;;;;6.43;4.27;;;11.30;99.90;;;;;;4966148;28;20651;-80
2022/10/23 01:46:30;;;;;;;7.10;4.50;;;11.30;99.90;;;;;;4983292;28;20527;-80
2022/10/23 01:48:59;;;;;;;10.43;5.40;;;11.20;99.90;;;;;;4983242;28;20251;-82
2022/10/23 01:51:27;;;;;;;9.97;5.17;;;11.10;99.90;;;;;;4973251;28;20246;-80
2022/10/23 01:53:56;;;;;;;6.53;4.57;;;11.00;99.90;;;;;;4979902;28;20699;-82
2022/10/23 01:56:27;;;;;;;5.57;5.03;;;11.00;99.90;;;;;;4966601;28;20248;-80
2022/10/23 01:58:55;;;;;;;6.77;4.23;;;10.90;99.90;;;;;;4996268;28;21007;-83
2022/10/23 02:01:24;;;;;;;12.37;4.90;;;10.90;99.90;;;;;;4993560;28;20212;-79
2022/10/23 02:03:52;;;;;;;17.83;4.63;;;10.90;99.90;;;;;;4987638;28;20215;-80
2022/10/23 02:06:18;;;;;;;6.77;4.30;;;10.90;99.90;;;;;;4984191;28;20357;-80
2022/10/23 02:08:44;;;;;;;3.80;3.43;;;10.90;99.90;;;;;;4983783;28;20697;-81
2022/10/23 02:11:13;;;;;;;6.60;3.83;;;10.80;99.90;;;;;;4967245;28;20192;-83
2022/10/23 02:13:58;;;;;;;9.30;4.90;;;10.80;99.90;;;;;;4984809;28;20222;-80
2022/10/23 02:16:35;;;;;;;9.20;5.13;;;10.80;99.90;;;;;;5007534;28;20244;-80
2022/10/23 02:19:26;;;;;;;6.73;4.90;;;10.90;99.90;;;;;;4984879;28;20685;-80
2022/10/23 02:22:10;;;;;;;23.57;5.50;;;11.00;99.90;;;;;;4983899;28;20306;-83
2022/10/23 02:24:48;;;;;;;11.17;4.80;;;11.10;99.90;;;;;;4983655;28;20236;-81
2022/10/23 02:27:19;;;;;;;5.50;3.67;;;11.20;99.90;;;;;;4983360;28;20689;-83
2022/10/23 02:29:51;;;;;;;14.57;5.47;;;11.20;99.90;;;;;;4983646;28;20293;-82
2022/10/23 02:32:19;;;;;;;7.53;5.40;;;11.20;99.90;;;;;;4983561;28;20418;-82
2022/10/23 02:34:45;;;;;;;4.97;4.40;;;11.20;99.90;;;;;;4984341;28;20835;-82
2022/10/23 02:37:11;;;;;;;9.63;6.17;;;11.20;99.90;;;;;;4982547;28;20208;-81
2022/10/23 02:39:38;;;;;;;6.67;5.23;;;11.10;99.90;;;;;;4955102;28;20217;-80
2022/10/23 02:42:06;;;;;;;9.60;5.67;;;11.10;99.90;;;;;;4966233;28;20212;-80
2022/10/23 02:44:51;;;;;;;10.13;4.40;;;10.90;99.90;;;;;;4965588;28;20736;-82
2022/10/23 02:47:29;;;;;;;31.80;4.40;;;10.70;99.90;;;;;;4982726;28;20533;-82
2022/10/23 02:50:03;;;;;;;22.80;4.77;;;10.40;99.90;;;;;;4983775;28;20168;-79
2022/10/23 02:52:46;;;;;;;12.10;4.13;;;10.20;99.90;;;;;;4979811;28;20217;-79
2022/10/23 02:55:45;;;;;;;22.73;5.73;;;10.00;99.90;;;;;;4979112;28;20243;-80
2022/10/23 02:58:34;;;;;;;45.17;5.53;;;10.10;99.90;;;;;;4983200;28;20271;-82
2022/10/23 03:01:18;;;;;;;67.60;5.87;;;10.10;99.90;;;;;;4983208;28;20220;-79
2022/10/23 03:03:51;;;;;;;29.03;6.90;;;10.00;99.90;;;;;;4983479;28;21301;-81
2022/10/23 03:06:17;;;;;;;79.80;5.67;;;9.90;99.90;;;;;;4981688;28;20911;-80
2022/10/23 03:08:49;;;;;;;52.73;6.50;;;9.80;99.90;;;;;;4946882;28;20465;-80
2022/10/23 03:11:14;;;;;;;7.63;3.97;;;9.80;99.90;;;;;;4964606;28;20678;-80
2022/10/23 03:13:40;;;;;;;16.83;4.10;;;9.90;99.90;;;;;;4950143;28;20464;-80
2022/10/23 03:16:06;;;;;;;13.70;4.43;;;9.90;99.90;;;;;;4965931;28;20888;-81
2022/10/23 03:18:31;;;;;;;7.40;4.63;;;10.10;99.90;;;;;;4956745;28;20300;-81
2022/10/23 03:20:57;;;;;;;12.63;3.37;;;10.20;99.90;;;;;;4968251;28;20215;-80
2022/10/23 03:23:23;;;;;;;34.87;4.87;;;10.20;99.90;;;;;;4989824;28;20462;-80
2022/10/23 03:25:48;;;;;;;11.17;3.57;;;10.10;99.90;;;;;;4965989;28;20693;-82
2022/10/23 03:28:14;;;;;;;10.03;5.43;;;10.10;99.90;;;;;;4964905;28;20252;-81
2022/10/23 03:30:40;;;;;;;5.60;4.10;;;10.20;99.90;;;;;;4974311;28;20314;-79
2022/10/23 03:33:06;;;;;;;8.50;4.73;;;10.30;99.90;;;;;;4974017;28;20231;-79
2022/10/23 03:35:31;;;;;;;6.33;4.23;;;10.50;99.90;;;;;;4966566;28;20496;-81
2022/10/23 03:37:57;;;;;;;7.07;4.57;;;10.60;99.90;;;;;;5005628;28;20250;-81
2022/10/23 03:40:23;;;;;;;6.73;4.60;;;10.60;99.90;;;;;;4989180;28;20242;-80
2022/10/23 03:42:48;;;;;;;9.37;5.20;;;10.60;99.90;;;;;;4980467;28;20823;-80
2022/10/23 03:45:14;;;;;;;5.00;3.67;;;10.60;99.90;;;;;;4946512;28;20267;-80
2022/10/23 03:47:40;;;;;;;5.27;3.70;;;10.50;99.90;;;;;;4978111;28;20221;-81
2022/10/23 03:50:08;;;;;;;6.27;4.87;;;10.30;99.90;;;;;;4962455;28;20193;-80
2022/10/23 03:52:34;;;;;;;8.50;5.07;;;10.20;99.90;;;;;;4961750;28;20303;-80
2022/10/23 03:54:59;;;;;;;5.03;4.50;;;10.10;99.90;;;;;;4946030;28;20244;-80
2022/10/23 03:57:25;;;;;;;12.67;4.63;;;10.10;99.90;;;;;;4994716;28;20228;-79
2022/10/23 03:59:51;;;;;;;5.07;4.20;;;10.10;99.90;;;;;;4991023;28;20589;-81
2022/10/23 04:02:17;;;;;;;6.47;4.87;;;10.00;99.90;;;;;;4992767;28;20646;-81
2022/10/23 04:04:43;;;;;;;5.87;3.87;;;10.00;99.90;;;;;;4992590;28;20211;-81
2022/10/23 04:07:09;;;;;;;6.87;4.47;;;10.10;99.90;;;;;;4982496;28;20220;-82
2022/10/23 04:09:34;;;;;;;9.73;3.93;;;10.20;99.90;;;;;;4937722;28;20228;-81
2022/10/23 04:12:00;;;;;;;4.13;2.93;;;10.20;99.90;;;;;;4977748;28;20219;-81
2022/10/23 04:14:26;;;;;;;3.40;3.10;;;10.20;99.90;;;;;;4964937;28;20680;-82
2022/10/23 04:16:52;;;;;;;7.57;3.80;;;10.20;99.90;;;;;;4990143;28;20219;-81
2022/10/23 04:19:18;;;;;;;5.73;4.33;;;10.20;99.90;;;;;;5003703;28;20637;-80
2022/10/23 04:21:44;;;;;;;8.60;3.87;;;10.20;99.90;;;;;;4986046;28;20772;-80
2022/10/23 04:24:10;;;;;;;5.03;3.93;;;10.20;99.90;;;;;;4988756;28;20224;-80
2022/10/23 04:26:35;;;;;;;3.67;3.13;;;10.10;99.90;;;;;;4961297;28;20224;-82
2022/10/23 04:29:01;;;;;;;5.53;4.87;;;10.10;99.90;;;;;;4961624;28;20193;-80
2022/10/23 04:31:27;;;;;;;4.27;3.07;;;10.20;99.90;;;;;;4962564;28;20217;-83
2022/10/23 04:33:53;;;;;;;7.23;4.90;;;10.30;99.90;;;;;;4932639;28;20283;-80
2022/10/23 04:36:19;;;;;;;4.27;3.97;;;10.40;99.90;;;;;;4962469;28;20231;-81
2022/10/23 04:38:44;;;;;;;7.77;4.10;;;10.40;99.90;;;;;;4996123;28;20218;-79
2022/10/23 04:41:10;;;;;;;5.57;4.00;;;10.40;99.90;;;;;;4992924;28;20262;-80
2022/10/23 04:43:36;;;;;;;6.13;4.57;;;10.50;99.90;;;;;;4993603;28;20215;-80
2022/10/23 04:46:02;;;;;;;5.70;4.73;;;10.40;99.90;;;;;;4986883;28;20724;-81
2022/10/23 04:48:28;;;;;;;9.07;4.33;;;10.50;99.90;;;;;;4973402;28;20761;-80
2022/10/23 04:51:02;;;;;;;4.77;3.50;;;10.40;99.90;;;;;;4975181;28;20223;-80
2022/10/23 04:53:29;;;;;;;5.80;4.63;;;10.40;99.90;;;;;;4992716;28;20182;-80
2022/10/23 04:55:56;;;;;;;4.47;3.13;;;10.40;99.90;;;;;;4985836;28;20235;-80
2022/10/23 04:58:23;;;;;;;6.93;4.93;;;10.50;99.90;;;;;;4966859;28;20228;-81
2022/10/23 05:00:49;;;;;;;5.97;4.50;;;10.50;99.90;;;;;;4971231;28;20243;-80
2022/10/23 05:03:16;;;;;;;10.40;4.97;;;10.50;99.90;;;;;;4985960;28;20225;-81
2022/10/23 05:05:43;;;;;;;7.30;4.63;;;10.50;99.90;;;;;;4971127;28;20238;-81
2022/10/23 05:08:09;;;;;;;9.73;5.07;;;10.60;99.90;;;;;;4993737;28;20187;-80
2022/10/23 05:10:35;;;;;;;6.27;4.23;;;10.60;99.90;;;;;;4958825;28;20219;-80
2022/10/23 05:13:01;;;;;;;8.07;4.80;;;10.50;99.90;;;;;;4966846;28;20223;-80
2022/10/23 05:15:27;;;;;;;4.83;3.37;;;10.50;99.90;;;;;;4976082;28;20212;-82
2022/10/23 05:18:04;;;;;;;8.33;4.70;;;10.50;99.90;;;;;;4945445;28;20239;-82
2022/10/23 05:20:33;;;;;;;15.90;4.43;;;10.50;99.90;;;;;;4967633;28;20208;-81
2022/10/23 05:23:01;;;;;;;6.20;4.60;;;10.50;99.90;;;;;;4985453;28;20265;-81
2022/10/23 05:25:28;;;;;;;6.03;3.97;;;10.60;99.90;;;;;;4983201;28;20223;-79
2022/10/23 05:27:54;;;;;;;11.77;5.70;;;10.60;99.90;;;;;;4990476;28;20484;-81
2022/10/23 05:30:20;;;;;;;8.13;3.07;;;10.60;99.90;;;;;;4992396;28;20212;-78
2022/10/23 05:32:46;;;;;;;5.43;4.30;;;10.60;99.90;;;;;;4985695;28;20228;-82
2022/10/23 05:35:21;;;;;;;7.53;4.00;;;10.60;99.90;;;;;;4965733;28;20526;-82
2022/10/23 05:37:49;;;;;;;6.10;3.83;;;10.60;99.90;;;;;;4993339;28;20254;-81
2022/10/23 05:40:16;;;;;;;15.63;5.17;;;10.50;99.90;;;;;;4986785;28;20226;-80
2022/10/23 05:42:41;;;;;;;9.43;5.60;;;10.50;99.90;;;;;;4983223;28;20259;-83
2022/10/23 05:45:08;;;;;;;7.37;6.30;;;10.60;99.90;;;;;;4991473;28;20331;-81
2022/10/23 05:47:33;;;;;;;51.20;5.70;;;10.60;99.90;;;;;;4950225;28;20232;-82
2022/10/23 05:49:59;;;;;;;47.80;5.80;;;10.50;99.90;;;;;;4983523;28;20196;-80
2022/10/23 05:52:25;;;;;;;17.97;4.87;;;10.40;99.90;;;;;;4984267;28;20224;-80
2022/10/23 05:54:51;;;;;;;19.63;4.83;;;10.30;99.90;;;;;;4984029;28;20768;-80
2022/10/23 05:57:17;;;;;;;66.87;8.33;;;10.30;99.90;;;;;;4983845;28;20311;-80
2022/10/23 05:59:43;;;;;;;11.93;5.70;;;10.30;99.90;;;;;;4982411;28;20215;-80
2022/10/23 06:02:09;;;;;;;67.20;7.33;;;10.40;99.90;;;;;;4983124;28;20242;-80
2022/10/23 06:04:35;;;;;;;57.50;6.30;;;10.40;99.90;;;;;;4978832;28;20273;-80
2022/10/23 06:07:02;;;;;;;30.70;6.97;;;10.40;99.90;;;;;;4978515;28;20312;-81
2022/10/23 06:09:27;;;;;;;16.20;5.70;;;10.40;99.90;;;;;;4982743;28;20216;-79
2022/10/23 06:11:53;;;;;;;11.60;4.57;;;10.30;99.90;;;;;;4982254;28;21055;-80
2022/10/23 06:14:19;;;;;;;7.00;3.93;;;10.20;99.90;;;;;;4967418;28;20188;-81
2022/10/23 06:16:45;;;;;;;7.30;4.90;;;10.20;99.90;;;;;;4952644;28;20180;-80
2022/10/23 06:19:11;;;;;;;7.40;5.63;;;10.20;99.90;;;;;;5005150;28;20503;-81
2022/10/23 06:21:38;;;;;;;6.13;3.87;;;10.10;99.90;;;;;;4987512;28;20216;-80
2022/10/23 06:24:06;;;;;;;10.17;4.93;;;10.00;99.90;;;;;;4960357;28;20663;-81
2022/10/23 06:26:32;;;;;;;13.17;4.97;;;10.10;99.90;;;;;;4950452;28;20351;-83
2022/10/23 06:28:58;;;;;;;9.30;6.03;;;10.10;99.90;;;;;;4999010;28;20242;-81
2022/10/23 06:31:26;;;;;;;8.50;5.60;;;10.20;99.90;;;;;;4984046;28;20215;-82
2022/10/23 06:33:53;;;;;;;7.13;5.67;;;10.30;99.90;;;;;;4990468;28;20215;-82
2022/10/23 06:36:19;;;;;;;8.63;6.60;;;10.30;99.90;;;;;;4992245;28;20499;-81
2022/10/23 06:38:45;;;;;;;11.30;7.00;;;10.40;99.90;;;;;;4990623;28;20216;-83
2022/10/23 06:41:15;;;;;;;8.60;7.47;;;10.50;99.90;;;;;;4966924;28;20192;-81
2022/10/23 06:43:41;;;;;;;10.73;6.33;;;10.60;99.90;;;;;;4998536;28;20937;-83
2022/10/23 06:46:07;;;;;;;9.33;5.40;;;10.60;99.90;;;;;;4991975;28;20226;-83
2022/10/23 06:48:33;;;;;;;9.30;6.17;;;10.70;99.90;;;;;;4987493;28;20756;-81
2022/10/23 06:51:03;;;;;;;8.67;6.33;;;10.80;99.90;;;;;;4959813;28;20208;-81
2022/10/23 06:53:29;;;;;;;13.43;7.13;;;10.90;99.90;;;;;;4966545;28;20600;-82
2022/10/23 06:55:59;;;;;;;8.87;5.60;;;10.90;99.90;;;;;;4966130;28;20318;-83
2022/10/23 06:58:25;;;;;;;15.70;7.43;;;10.90;99.90;;;;;;4963634;28;20224;-84
2022/10/23 07:00:50;;;;;;;14.83;7.43;;;11.10;99.90;;;;;;4976019;28;20739;-82
2022/10/23 07:03:16;;;;;;;12.37;6.57;;;11.30;99.90;;;;;;4956597;28;20251;-80
2022/10/23 07:05:46;;;;;;;13.87;7.73;;;11.50;99.90;;;;;;4963873;28;20327;-81
2022/10/23 07:08:12;;;;;;;15.70;7.43;;;11.60;99.90;;;;;;4949252;28;20176;-81
2022/10/23 07:10:41;;;;;;;13.73;6.47;;;11.70;99.90;;;;;;4998096;28;20283;-80
2022/10/23 07:13:08;;;;;;;13.40;10.13;;;11.80;99.90;;;;;;4988987;28;20664;-81
2022/10/23 07:15:34;;;;;;;11.03;8.37;;;11.90;99.90;;;;;;4992682;28;20215;-82
2022/10/23 07:17:59;;;;;;;12.53;7.97;;;11.90;99.90;;;;;;4991556;28;20639;-81
2022/10/23 07:20:26;;;;;;;13.13;8.87;;;11.90;99.90;;;;;;4972376;28;20268;-83
2022/10/23 07:22:53;;;;;;;11.03;7.20;;;12.00;99.90;;;;;;4993415;28;20200;-82
2022/10/23 07:25:20;;;;;;;10.10;5.90;;;12.10;99.90;;;;;;4957865;28;20215;-82
2022/10/23 07:27:46;;;;;;;20.33;9.03;;;12.10;99.90;;;;;;4985536;28;20224;-83
2022/10/23 07:30:13;;;;;;;9.47;8.13;;;12.20;99.90;;;;;;4971979;28;20361;-82
2022/10/23 07:32:38;;;;;;;11.13;7.53;;;12.30;99.90;;;;;;4961900;28;20254;-82
2022/10/23 07:35:05;;;;;;;10.10;8.43;;;12.40;99.90;;;;;;4979214;28;21089;-84
2022/10/23 07:37:30;;;;;;;11.10;8.47;;;12.40;99.90;;;;;;4963062;28;20777;-83
2022/10/23 07:39:56;;;;;;;9.90;6.90;;;12.50;99.90;;;;;;4985213;28;20223;-81
2022/10/23 07:42:22;;;;;;;12.43;8.20;;;12.60;99.90;;;;;;4958828;28;20688;-81
2022/10/23 07:44:48;;;;;;;12.23;7.83;;;12.60;99.90;;;;;;4989410;28;20223;-81
2022/10/23 07:47:13;;;;;;;13.20;8.10;;;12.60;99.90;;;;;;4965385;28;20192;-81
2022/10/23 07:49:40;;;;;;;13.07;7.27;;;12.70;99.90;;;;;;4981961;28;20242;-81
2022/10/23 07:52:06;;;;;;;9.33;8.27;;;12.70;99.90;;;;;;4983022;28;20222;-82
2022/10/23 07:54:32;;;;;;;11.83;7.00;;;12.80;99.90;;;;;;4980078;28;20649;-81
2022/10/23 07:56:58;;;;;;;8.13;6.43;;;12.80;99.90;;;;;;4980846;28;20227;-83
2022/10/23 07:59:25;;;;;;;10.50;6.43;;;12.90;99.90;;;;;;4981769;28;20187;-82
2022/10/23 08:01:51;;;;;;;19.60;7.30;;;13.00;99.90;;;;;;4976008;28;20187;-81
2022/10/23 08:04:18;;;;;;;9.07;7.13;;;13.00;99.90;;;;;;4985500;28;20223;-82
2022/10/23 08:06:44;;;;;;;8.90;6.77;;;13.10;99.90;;;;;;4979388;28;20236;-82
2022/10/23 08:09:09;;;;;;;9.97;7.77;;;13.10;99.90;;;;;;4977060;28;20321;-82
2022/10/23 08:11:35;;;;;;;8.67;5.50;;;13.20;99.90;;;;;;4979777;28;20323;-81
2022/10/23 08:14:03;;;;;;;13.07;5.83;;;13.20;99.90;;;;;;4981605;28;20254;-81
2022/10/23 08:16:34;;;;;;;7.53;6.30;;;13.20;99.90;;;;;;4985168;28;20216;-82
2022/10/23 08:19:00;;;;;;;13.57;6.77;;;13.20;99.90;;;;;;4987230;28;20215;-82
2022/10/23 08:21:26;;;;;;;9.20;6.10;;;13.30;99.90;;;;;;4986725;28;20589;-81
2022/10/23 08:23:54;;;;;;;8.47;6.17;;;13.40;99.90;;;;;;4986517;28;20223;-81
2022/10/23 08:26:20;;;;;;;11.33;7.40;;;13.40;99.90;;;;;;4985769;28;20200;-82
2022/10/23 08:28:46;;;;;;;11.83;8.13;;;13.50;99.90;;;;;;4979246;28;20676;-81
2022/10/23 08:31:17;;;;;;;13.17;6.70;;;13.50;99.90;;;;;;4954641;28;20222;-82
2022/10/23 08:33:43;;;;;;;10.57;7.30;;;13.50;99.90;;;;;;4984479;28;20254;-83
2022/10/23 08:36:24;;;;;;;10.87;8.47;;;13.60;99.90;;;;;;4995678;28;21188;-85
2022/10/23 08:38:53;;;;;;;11.37;7.53;;;13.70;99.90;;;;;;4992791;28;20240;-84
2022/10/23 08:41:24;;;;;;;16.93;8.57;;;13.80;99.90;;;;;;4994640;28;20208;-82
2022/10/23 08:44:02;;;;;;;13.43;7.37;;;13.90;99.90;;;;;;5012074;28;20668;-83
2022/10/23 08:46:33;;;;;;;8.27;6.00;;;13.90;99.90;;;;;;4988075;28;20240;-82
2022/10/23 08:49:12;;;;;;;8.73;5.67;;;14.00;99.90;;;;;;4986100;28;20226;-82
2022/10/23 08:51:45;;;;;;;15.60;7.80;;;14.10;99.90;;;;;;5008530;28;20281;-82
2022/10/23 08:54:16;;;;;;;19.50;6.50;;;14.10;99.90;;;;;;4991098;28;20235;-82
2022/10/23 08:57:12;;;;;;;13.23;6.97;;;14.20;99.90;;;;;;4987306;28;20897;-83
2022/10/23 08:59:49;;;;;;;7.00;5.80;;;14.20;99.90;;;;;;4985717;28;20230;-82
2022/10/23 09:02:34;;;;;;;16.90;6.73;;;14.30;99.90;;;;;;4995233;28;20179;-83
2022/10/23 09:04:59;;;;;;;9.60;7.03;;;14.30;99.90;;;;;;4994875;28;20235;-83
2022/10/23 09:07:37;;;;;;;13.33;6.60;;;14.40;99.90;;;;;;4952377;28;20903;-83
2022/10/23 09:10:31;;;;;;;8.07;6.13;;;14.40;99.90;;;;;;4982423;28;20212;-82
2022/10/23 09:13:05;;;;;;;7.97;5.70;;;14.50;99.90;;;;;;4977438;28;20220;-84
2022/10/23 09:15:37;;;;;;;6.90;5.23;;;14.50;99.90;;;;;;4982147;28;20215;-83
2022/10/23 09:18:14;;;;;;;10.87;6.27;;;14.60;99.90;;;;;;4992331;28;20574;-83
2022/10/23 09:20:43;;;;;;;8.20;4.57;;;14.60;99.90;;;;;;4987334;28;20235;-84
2022/10/23 09:23:23;;;;;;;8.83;5.03;;;14.70;99.90;;;;;;5003192;28;20649;-85
2022/10/23 09:25:54;;;;;;;9.27;6.43;;;14.80;99.90;;;;;;4964681;28;20235;-83
2022/10/23 09:28:27;;;;;;;12.27;6.57;;;14.90;99.90;;;;;;4983217;28;20230;-82
2022/10/23 09:31:04;;;;;;;7.07;5.37;;;14.90;99.90;;;;;;4985785;28;20212;-82
2022/10/23 09:33:29;;;;;;;9.67;6.50;;;15.00;99.90;;;;;;4984168;28;20223;-84
2022/10/23 09:36:06;;;;;;;7.13;5.43;;;15.00;99.90;;;;;;4963240;28;20227;-83
2022/10/23 09:38:36;;;;;;;9.17;5.70;;;15.10;99.90;;;;;;4967357;28;20266;-82
2022/10/23 09:41:13;;;;;;;9.90;5.53;;;15.20;99.90;;;;;;4985201;28;20187;-82
2022/10/23 09:43:39;;;;;;;10.63;5.37;;;15.20;99.90;;;;;;4979637;28;20212;-82
2022/10/23 09:46:06;;;;;;;9.20;6.23;;;15.40;99.90;;;;;;4965196;28;20252;-83
2022/10/23 09:48:33;;;;;;;9.60;6.00;;;15.40;99.90;;;;;;4985333;28;20215;-82
2022/10/23 09:51:13;;;;;;;7.23;5.27;;;15.40;99.90;;;;;;4985296;28;20216;-83
2022/10/23 09:53:51;;;;;;;9.63;6.53;;;15.50;99.90;;;;;;4984360;28;20238;-83
2022/10/23 09:56:35;;;;;;;6.37;5.17;;;15.60;99.90;;;;;;4989500;28;20776;-82
2022/10/23 09:59:05;;;;;;;10.23;5.27;;;15.50;99.90;;;;;;4994067;28;20699;-82
2022/10/23 10:01:44;;;;;;;7.23;4.63;;;15.60;99.90;;;;;;5005414;28;20678;-82
2022/10/23 10:04:10;;;;;;;8.73;4.73;;;15.70;99.90;;;;;;4968063;28;20211;-81
2022/10/23 10:06:36;;;;;;;6.80;5.37;;;15.70;99.90;;;;;;5011510;28;21018;-81
2022/10/23 10:09:06;;;;;;;9.93;4.47;;;15.70;99.90;;;;;;4978035;28;20222;-83
2022/10/23 10:11:41;;;;;;;10.70;4.57;;;15.80;99.90;;;;;;4987134;28;20391;-83
2022/10/23 10:14:25;;;;;;;15.27;5.30;;;15.80;99.90;;;;;;4983751;28;20233;-82
2022/10/23 10:17:05;;;;;;;6.83;4.47;;;15.80;99.90;;;;;;4986930;28;20242;-82
2022/10/23 10:19:49;;;;;;;6.20;4.30;;;15.90;99.90;;;;;;4990717;28;20256;-85
2022/10/23 10:22:31;;;;;;;6.80;4.43;;;15.90;99.90;;;;;;4993447;28;20196;-84
2022/10/23 10:25:00;;;;;;;6.13;4.40;;;15.90;99.90;;;;;;4992379;28;20199;-82
2022/10/23 10:27:56;;;;;;;7.17;4.57;;;16.00;99.90;;;;;;4994179;28;20247;-80
2022/10/23 10:30:24;;;;;;;9.03;5.10;;;16.10;99.90;;;;;;5002861;28;20285;-82
2022/10/23 10:32:58;;;;;;;6.63;4.63;;;16.20;99.90;;;;;;4969175;28;20225;-83
2022/10/23 10:35:36;;;;;;;7.27;4.23;;;16.20;99.90;;;;;;4974771;28;20237;-87
2022/10/23 10:38:33;;;;;;;11.23;5.10;;;16.30;99.90;;;;;;4984632;28;20219;-87
2022/10/23 10:41:17;;;;;;;5.40;3.97;;;16.40;99.90;;;;;;4988123;28;20246;-86
2022/10/23 10:44:20;;;;;;;9.23;5.70;;;16.50;99.90;;;;;;4985884;28;20235;-85
2022/10/23 10:46:56;;;;;;;15.60;4.93;;;16.50;99.90;;;;;;4989222;28;20241;-87
2022/10/23 10:49:46;;;;;;;5.63;3.70;;;16.50;99.90;;;;;;4993088;28;20219;-84
2022/10/23 10:53:02;;;;;;;4.93;3.70;;;16.60;99.90;;;;;;5010993;28;20262;-87
2022/10/23 10:55:40;;;;;;;4.97;3.83;;;16.70;99.90;;;;;;4966579;28;21109;-87
2022/10/23 10:58:22;;;;;;;5.77;3.40;;;16.70;99.90;;;;;;4981930;28;20666;-86
2022/10/23 11:00:54;;;;;;;5.43;3.80;;;16.70;99.90;;;;;;4989899;28;20195;-85
2022/10/23 11:03:23;;;;;;;6.50;3.07;;;16.80;99.90;;;;;;4981140;28;20355;-86
2022/10/23 11:05:50;;;;;;;6.33;4.30;;;16.80;99.90;;;;;;4979040;28;20710;-87
2022/10/23 11:08:21;;;;;;;5.63;3.93;;;16.90;99.90;;;;;;4963934;28;21680;-86
2022/10/23 11:10:53;;;;;;;5.53;3.03;;;17.00;99.90;;;;;;4974549;28;20286;-86
2022/10/23 11:13:26;;;;;;;6.37;2.90;;;17.00;99.90;;;;;;4992128;28;20180;-85
2022/10/23 11:15:58;;;;;;;5.90;2.90;;;17.10;99.90;;;;;;4993976;28;20191;-87
2022/10/23 11:18:29;;;;;;;5.80;2.90;;;17.10;99.90;;;;;;4980685;28;20232;-86
2022/10/23 11:21:07;;;;;;;5.57;2.93;;;17.10;99.90;;;;;;4979543;28;20220;-86
2022/10/23 11:23:56;;;;;;;2.63;2.40;;;17.20;99.90;;;;;;4984542;28;20285;-86
2022/10/23 11:26:56;;;;;;;5.80;2.40;;;17.20;99.90;;;;;;4991040;28;21008;-85
2022/10/23 11:29:47;;;;;;;4.77;2.87;;;17.20;99.90;;;;;;4986264;28;20277;-85
2022/10/23 11:32:33;;;;;;;4.03;3.30;;;17.30;99.90;;;;;;4988512;28;20226;-86
2022/10/23 11:35:21;;;;;;;4.97;2.93;;;17.30;99.90;;;;;;4990964;28;20212;-86
2022/10/23 11:38:07;;;;;;;4.13;2.53;;;17.30;99.90;;;;;;4984255;28;20251;-85
2022/10/23 11:40:33;;;;;;;2.37;2.17;;;17.30;99.90;;;;;;4963568;28;20219;-85
2022/10/23 11:42:59;;;;;;;4.23;3.17;;;17.30;99.90;;;;;;4931031;28;20185;-88
2022/10/23 11:45:30;;;;;;;2.67;2.27;;;17.30;99.90;;;;;;4963442;28;20232;-87
2022/10/23 11:48:12;;;;;;;5.37;2.07;;;17.30;99.90;;;;;;4979269;28;20220;-86
2022/10/23 11:50:43;;;;;;;3.07;2.30;;;17.30;99.90;;;;;;4969426;28;20224;-86
2022/10/23 11:53:31;;;;;;;3.33;2.87;;;17.40;99.90;;;;;;4993572;28;20218;-86
2022/10/23 11:56:13;;;;;;;6.83;2.93;;;17.50;99.90;;;;;;4987086;28;20248;-85
2022/10/23 11:58:48;;;;;;;5.10;2.63;;;17.50;99.90;;;;;;4974171;28;20223;-86
2022/10/23 12:01:38;;;;;;;2.43;2.23;;;17.70;99.90;;;;;;4995274;28;20179;-85
2022/10/23 12:04:13;;;;;;;4.83;2.70;;;17.70;99.90;;;;;;5010711;28;20262;-85
2022/10/23 12:06:45;;;;;;;3.67;3.20;;;17.70;99.90;;;;;;4985071;28;20206;-86
2022/10/23 12:09:35;;;;;;;3.33;2.77;;;17.70;99.90;;;;;;4985489;28;20367;-86
2022/10/23 12:12:16;;;;;;;4.60;3.07;;;17.60;99.90;;;;;;4986345;28;20215;-86
2022/10/23 12:14:44;;;;;;;10.20;3.90;;;17.70;99.90;;;;;;4986448;28;20270;-86
2022/10/23 12:17:22;;;;;;;3.37;1.80;;;17.70;99.90;;;;;;4987105;28;20567;-88
2022/10/23 12:20:07;;;;;;;3.63;2.63;;;17.70;99.90;;;;;;4986176;28;20239;-85
2022/10/23 12:22:41;;;;;;;3.67;2.13;;;17.70;99.90;;;;;;4986402;28;20216;-85
2022/10/23 12:25:14;;;;;;;3.87;2.07;;;17.70;99.90;;;;;;4986584;28;20211;-86
2022/10/23 12:28:02;;;;;;;2.30;2.10;;;17.70;99.90;;;;;;4987369;28;20249;-87
2022/10/23 12:31:09;;;;;;;4.73;1.60;;;17.60;99.90;;;;;;4985244;28;20224;-86
2022/10/23 12:33:51;;;;;;;3.10;2.20;;;17.60;99.90;;;;;;4967208;28;20205;-86
2022/10/23 12:36:32;;;;;;;4.97;2.50;;;17.50;99.90;;;;;;4985469;28;20587;-86
2022/10/23 12:38:58;;;;;;;3.97;1.60;;;17.40;99.90;;;;;;4991453;28;20222;-86
2022/10/23 12:41:29;;;;;;;3.00;2.03;;;17.40;99.90;;;;;;4956893;28;20230;-88
2022/10/23 12:43:58;;;;;;;2.27;1.80;;;17.40;99.90;;;;;;5004282;28;20219;-87
2022/10/23 12:46:27;;;;;;;3.37;1.77;;;17.40;99.90;;;;;;4994263;28;20239;-86
2022/10/23 12:48:55;;;;;;;2.83;1.87;;;17.50;99.90;;;;;;4986339;28;20283;-87
2022/10/23 12:51:29;;;;;;;2.47;1.83;;;17.40;99.90;;;;;;4985007;28;20318;-86
2022/10/23 12:53:55;;;;;;;3.33;2.37;;;17.40;99.90;;;;;;4987692;28;21018;-86
2022/10/23 12:56:24;;;;;;;4.13;2.13;;;17.40;99.90;;;;;;4960847;28;20255;-86
2022/10/23 12:58:56;;;;;;;2.87;2.10;;;17.40;99.90;;;;;;4953075;28;20613;-86
2022/10/23 13:01:28;;;;;;;2.57;1.93;;;17.40;99.90;;;;;;4975474;28;20220;-87
2022/10/23 13:04:26;;;;;;;3.97;2.17;;;17.40;99.90;;;;;;5015528;28;20184;-85